sensor_id;sensor_type;location;lat;lon;timestamp;temperature;humidity
2603;DHT22;1311;47.966;7.958;2023-08-07T00:00:00;13.60;99.90
2603;DHT22;1311;47.966;7.958;2023-08-07T00:02:27;13.50;99.90
2603;DHT22;1311;47.966;7.958;2023-08-07T00:04:54;13.60;99.90
2603;DHT22;1311;47.966;7.958;2023-08-07T00:07:21;13.60;99.90
2603;DHT22;1311;47.966;7.958;2023-08-07T00:09:51;13.60;99.90
2603;DHT22;1311;47.966;7.958;2023-08-07T00:12:17;13.60;99.90
2603;DHT22;1311;47.966;7.958;2023-08-07T00:14:47;13.60;99.90
2603;DHT22;1311;47.966;7.958;2023-08-07T00:17:13;13.60;99.90
2603;DHT22;1311;47.966;7.958;2023-08-07T00:19:40;13.60;99.90
2603;DHT22;1311;47.966;7.958;2023-08-07T00:22:07;13.60;99.90
2603;DHT22;1311;47.966;7.958;2023-08-07T00:24:34;13.60;99.90
2603;DHT22;1311;47.966;7.958;2023-08-07T00:27:02;13.60;99.90
2603;DHT22;1311;47.966;7.958;2023-08-07T00:29:29;13.60;99.90
2603;DHT22;1311;47.966;7.958;2023-08-07T00:31:55;13.60;99.90
2603;DHT22;1311;47.966;7.958;2023-08-07T00:34:22;13.60;99.90
2603;DHT22;1311;47.966;7.958;2023-08-07T00:36:49;13.60;99.90
2603;DHT22;1311;47.966;7.958;2023-08-07T00:39:16;13.60;99.90
2603;DHT22;1311;47.966;7.958;2023-08-07T00:41:43;13.60;99.90
2603;DHT22;1311;47.966;7.958;2023-08-07T00:44:11;13.60;99.90
2603;DHT22;1311;47.966;7.958;2023-08-07T00:46:37;13.60;99.90
2603;DHT22;1311;47.966;7.958;2023-08-07T00:49:05;13.60;99.90
2603;DHT22;1311;47.966;7.958;2023-08-07T00:51:33;13.60;99.90
2603;DHT22;1311;47.966;7.958;2023-08-07T00:54:00;13.60;99.90
2603;DHT22;1311;47.966;7.958;2023-08-07T00:56:30;13.60;99.90
2603;DHT22;1311;47.966;7.958;2023-08-07T00:58:57;13.60;99.90
2603;DHT22;1311;47.966;7.958;2023-08-07T01:01:26;13.50;99.90
2603;DHT22;1311;47.966;7.958;2023-08-07T01:03:53;13.50;99.90
2603;DHT22;1311;47.966;7.958;2023-08-07T01:06:19;13.50;99.90
2603;DHT22;1311;47.966;7.958;2023-08-07T01:08:47;13.40;99.90
2603;DHT22;1311;47.966;7.958;2023-08-07T01:11:22;13.40;99.90
2603;DHT22;1311;47.966;7.958;2023-08-07T01:13:55;13.40;99.90
2603;DHT22;1311;47.966;7.958;2023-08-07T01:16:31;13.40;99.90
2603;DHT22;1311;47.966;7.958;2023-08-07T01:19:01;13.40;99.90
2603;DHT22;1311;47.966;7.958;2023-08-07T01:21:28;13.40;99.90
2603;DHT22;1311;47.966;7.958;2023-08-07T01:23:57;13.40;99.90
2603;DHT22;1311;47.966;7.958;2023-08-07T01:26:23;13.40;99.90
2603;DHT22;1311;47.966;7.958;2023-08-07T01:28:57;13.40;99.90
2603;DHT22;1311;47.966;7.958;2023-08-07T01:31:26;13.40;99.90
2603;DHT22;1311;47.966;7.958;2023-08-07T01:33:58;13.30;99.90
2603;DHT22;1311;47.966;7.958;2023-08-07T01:36:27;13.40;99.90
2603;DHT22;1311;47.966;7.958;2023-08-07T01:38:57;13.30;99.90
2603;DHT22;1311;47.966;7.958;2023-08-07T01:41:25;13.40;99.90
2603;DHT22;1311;47.966;7.958;2023-08-07T01:43:54;13.30;99.90
2603;DHT22;1311;47.966;7.958;2023-08-07T01:46:21;13.30;99.90
2603;DHT22;1311;47.966;7.958;2023-08-07T01:48:47;13.30;99.90
2603;DHT22;1311;47.966;7.958;2023-08-07T01:51:14;13.30;99.90
2603;DHT22;1311;47.966;7.958;2023-08-07T01:53:41;13.20;99.90
2603;DHT22;1311;47.966;7.958;2023-08-07T01:56:09;13.20;99.90
2603;DHT22;1311;47.966;7.958;2023-08-07T01:58:36;13.10;99.90
2603;DHT22;1311;47.966;7.958;2023-08-07T02:01:02;13.10;99.90
2603;DHT22;1311;47.966;7.958;2023-08-07T02:03:29;13.00;99.90
2603;DHT22;1311;47.966;7.958;2023-08-07T02:05:56;13.00;99.90
2603;DHT22;1311;47.966;7.958;2023-08-07T02:08:22;13.00;99.90
2603;DHT22;1311;47.966;7.958;2023-08-07T02:10:49;13.00;99.90
2603;DHT22;1311;47.966;7.958;2023-08-07T02:13:17;13.00;99.90
2603;DHT22;1311;47.966;7.958;2023-08-07T02:15:44;13.00;99.90
2603;DHT22;1311;47.966;7.958;2023-08-07T02:18:11;13.00;99.90
2603;DHT22;1311;47.966;7.958;2023-08-07T02:20:37;12.90;99.90
2603;DHT22;1311;47.966;7.958;2023-08-07T02:23:04;12.90;99.90
2603;DHT22;1311;47.966;7.958;2023-08-07T02:25:31;12.80;99.90
2603;DHT22;1311;47.966;7.958;2023-08-07T02:27:57;12.80;99.90
2603;DHT22;1311;47.966;7.958;2023-08-07T02:30:26;12.60;99.90
2603;DHT22;1311;47.966;7.958;2023-08-07T02:32:52;12.60;99.90
2603;DHT22;1311;47.966;7.958;2023-08-07T02:35:19;12.60;99.90
2603;DHT22;1311;47.966;7.958;2023-08-07T02:37:46;12.60;99.90
2603;DHT22;1311;47.966;7.958;2023-08-07T02:40:12;12.60;99.90
2603;DHT22;1311;47.966;7.958;2023-08-07T02:42:41;12.60;99.90
2603;DHT22;1311;47.966;7.958;2023-08-07T02:45:08;12.60;99.90
2603;DHT22;1311;47.966;7.958;2023-08-07T02:47:36;12.60;99.90
2603;DHT22;1311;47.966;7.958;2023-08-07T02:50:04;12.70;99.90
2603;DHT22;1311;47.966;7.958;2023-08-07T02:52:30;12.70;99.90
2603;DHT22;1311;47.966;7.958;2023-08-07T02:54:57;12.70;99.90
2603;DHT22;1311;47.966;7.958;2023-08-07T02:57:24;12.70;99.90
2603;DHT22;1311;47.966;7.958;2023-08-07T02:59:51;12.70;99.90
2603;DHT22;1311;47.966;7.958;2023-08-07T03:02:18;12.70;99.90
2603;DHT22;1311;47.966;7.958;2023-08-07T03:04:46;12.80;99.90
2603;DHT22;1311;47.966;7.958;2023-08-07T03:07:12;12.70;99.90
2603;DHT22;1311;47.966;7.958;2023-08-07T03:09:39;12.70;99.90
2603;DHT22;1311;47.966;7.958;2023-08-07T03:12:06;12.70;99.90
2603;DHT22;1311;47.966;7.958;2023-08-07T03:14:33;12.80;99.90
2603;DHT22;1311;47.966;7.958;2023-08-07T03:17:00;12.80;99.90
2603;DHT22;1311;47.966;7.958;2023-08-07T03:19:27;12.80;99.90
2603;DHT22;1311;47.966;7.958;2023-08-07T03:21:55;12.70;99.90
2603;DHT22;1311;47.966;7.958;2023-08-07T03:24:21;12.70;99.90
2603;DHT22;1311;47.966;7.958;2023-08-07T03:26:48;12.70;99.90
2603;DHT22;1311;47.966;7.958;2023-08-07T03:29:15;12.70;99.90
2603;DHT22;1311;47.966;7.958;2023-08-07T03:31:42;12.70;99.90
2603;DHT22;1311;47.966;7.958;2023-08-07T03:34:08;12.60;99.90
2603;DHT22;1311;47.966;7.958;2023-08-07T03:36:35;12.60;99.90
2603;DHT22;1311;47.966;7.958;2023-08-07T03:39:03;12.70;99.90
2603;DHT22;1311;47.966;7.958;2023-08-07T03:41:30;12.60;99.90
2603;DHT22;1311;47.966;7.958;2023-08-07T03:43:57;12.50;99.90
2603;DHT22;1311;47.966;7.958;2023-08-07T03:46:23;12.60;99.90
2603;DHT22;1311;47.966;7.958;2023-08-07T03:48:50;12.60;99.90
2603;DHT22;1311;47.966;7.958;2023-08-07T03:51:17;12.50;99.90
2603;DHT22;1311;47.966;7.958;2023-08-07T03:53:44;12.60;99.90
2603;DHT22;1311;47.966;7.958;2023-08-07T03:56:12;12.50;99.90
2603;DHT22;1311;47.966;7.958;2023-08-07T03:58:38;12.60;99.90
2603;DHT22;1311;47.966;7.958;2023-08-07T04:01:05;12.50;99.90
2603;DHT22;1311;47.966;7.958;2023-08-07T04:03:32;12.50;99.90
2603;DHT22;1311;47.966;7.958;2023-08-07T04:05:59;12.50;99.90
2603;DHT22;1311;47.966;7.958;2023-08-07T04:08:27;12.50;99.90
2603;DHT22;1311;47.966;7.958;2023-08-07T04:11:00;12.50;99.90
2603;DHT22;1311;47.966;7.958;2023-08-07T04:13:29;12.50;99.90
2603;DHT22;1311;47.966;7.958;2023-08-07T04:15:56;12.50;99.90
2603;DHT22;1311;47.966;7.958;2023-08-07T04:18:23;12.50;99.90
2603;DHT22;1311;47.966;7.958;2023-08-07T04:20:52;12.50;99.90
2603;DHT22;1311;47.966;7.958;2023-08-07T04:23:19;12.40;99.90
2603;DHT22;1311;47.966;7.958;2023-08-07T04:25:47;12.40;99.90
2603;DHT22;1311;47.966;7.958;2023-08-07T04:28:13;12.20;99.90
2603;DHT22;1311;47.966;7.958;2023-08-07T04:30:42;12.10;99.90
2603;DHT22;1311;47.966;7.958;2023-08-07T04:33:09;12.10;99.90
2603;DHT22;1311;47.966;7.958;2023-08-07T04:35:36;12.10;99.90
2603;DHT22;1311;47.966;7.958;2023-08-07T04:38:03;12.20;99.90
2603;DHT22;1311;47.966;7.958;2023-08-07T04:40:29;12.20;99.90
2603;DHT22;1311;47.966;7.958;2023-08-07T04:42:56;12.10;99.90
2603;DHT22;1311;47.966;7.958;2023-08-07T04:45:23;12.10;99.90
2603;DHT22;1311;47.966;7.958;2023-08-07T04:47:51;12.10;99.90
2603;DHT22;1311;47.966;7.958;2023-08-07T04:50:18;12.10;99.90
2603;DHT22;1311;47.966;7.958;2023-08-07T04:52:45;12.20;99.90
2603;DHT22;1311;47.966;7.958;2023-08-07T04:55:11;12.20;99.90
2603;DHT22;1311;47.966;7.958;2023-08-07T04:57:38;12.20;99.90
2603;DHT22;1311;47.966;7.958;2023-08-07T05:00:06;12.10;99.90
2603;DHT22;1311;47.966;7.958;2023-08-07T05:02:33;12.20;99.90
2603;DHT22;1311;47.966;7.958;2023-08-07T05:05:01;12.20;99.90
2603;DHT22;1311;47.966;7.958;2023-08-07T05:07:28;12.20;99.90
2603;DHT22;1311;47.966;7.958;2023-08-07T05:09:55;12.20;99.90
2603;DHT22;1311;47.966;7.958;2023-08-07T05:12:22;12.20;99.90
2603;DHT22;1311;47.966;7.958;2023-08-07T05:14:49;12.30;99.90
2603;DHT22;1311;47.966;7.958;2023-08-07T05:17:15;12.40;99.90
2603;DHT22;1311;47.966;7.958;2023-08-07T05:19:42;12.30;99.90
2603;DHT22;1311;47.966;7.958;2023-08-07T05:22:10;12.30;99.90
2603;DHT22;1311;47.966;7.958;2023-08-07T05:24:37;12.40;99.90
2603;DHT22;1311;47.966;7.958;2023-08-07T05:27:05;12.40;99.90
2603;DHT22;1311;47.966;7.958;2023-08-07T05:29:33;12.40;99.90
2603;DHT22;1311;47.966;7.958;2023-08-07T05:32:00;12.40;99.90
2603;DHT22;1311;47.966;7.958;2023-08-07T05:34:28;12.40;99.90
2603;DHT22;1311;47.966;7.958;2023-08-07T05:36:55;12.40;99.90
2603;DHT22;1311;47.966;7.958;2023-08-07T05:39:23;12.50;99.90
2603;DHT22;1311;47.966;7.958;2023-08-07T05:41:50;12.70;99.90
2603;DHT22;1311;47.966;7.958;2023-08-07T05:44:19;12.70;99.90
2603;DHT22;1311;47.966;7.958;2023-08-07T05:46:45;12.80;99.90
2603;DHT22;1311;47.966;7.958;2023-08-07T05:49:12;12.70;99.90
2603;DHT22;1311;47.966;7.958;2023-08-07T05:51:39;12.70;99.90
2603;DHT22;1311;47.966;7.958;2023-08-07T05:54:06;12.50;99.90
2603;DHT22;1311;47.966;7.958;2023-08-07T05:56:34;12.40;99.90
2603;DHT22;1311;47.966;7.958;2023-08-07T05:59:01;12.50;99.90
2603;DHT22;1311;47.966;7.958;2023-08-07T06:01:27;12.50;99.90
2603;DHT22;1311;47.966;7.958;2023-08-07T06:03:56;12.50;99.90
2603;DHT22;1311;47.966;7.958;2023-08-07T06:06:23;12.50;99.90
2603;DHT22;1311;47.966;7.958;2023-08-07T06:08:50;12.60;99.90
2603;DHT22;1311;47.966;7.958;2023-08-07T06:11:17;12.90;99.90
2603;DHT22;1311;47.966;7.958;2023-08-07T06:13:45;13.10;99.90
2603;DHT22;1311;47.966;7.958;2023-08-07T06:16:12;13.30;99.90
2603;DHT22;1311;47.966;7.958;2023-08-07T06:18:39;13.10;99.90
2603;DHT22;1311;47.966;7.958;2023-08-07T06:21:06;13.10;99.90
2603;DHT22;1311;47.966;7.958;2023-08-07T06:23:32;12.90;99.90
2603;DHT22;1311;47.966;7.958;2023-08-07T06:25:59;12.90;99.90
2603;DHT22;1311;47.966;7.958;2023-08-07T06:28:29;12.90;99.90
2603;DHT22;1311;47.966;7.958;2023-08-07T06:31:01;13.20;99.90
2603;DHT22;1311;47.966;7.958;2023-08-07T06:33:28;13.40;99.90
2603;DHT22;1311;47.966;7.958;2023-08-07T06:35:55;13.40;99.90
2603;DHT22;1311;47.966;7.958;2023-08-07T06:38:22;13.50;99.90
2603;DHT22;1311;47.966;7.958;2023-08-07T06:40:49;13.40;99.90
2603;DHT22;1311;47.966;7.958;2023-08-07T06:43:15;13.40;99.90
2603;DHT22;1311;47.966;7.958;2023-08-07T06:45:42;13.30;99.90
2603;DHT22;1311;47.966;7.958;2023-08-07T06:48:10;13.40;99.90
2603;DHT22;1311;47.966;7.958;2023-08-07T06:50:37;13.50;99.90
2603;DHT22;1311;47.966;7.958;2023-08-07T06:53:04;13.70;99.90
2603;DHT22;1311;47.966;7.958;2023-08-07T06:55:30;13.90;99.90
2603;DHT22;1311;47.966;7.958;2023-08-07T06:57:58;14.00;99.90
2603;DHT22;1311;47.966;7.958;2023-08-07T07:00:25;14.00;99.90
2603;DHT22;1311;47.966;7.958;2023-08-07T07:02:52;14.20;99.90
2603;DHT22;1311;47.966;7.958;2023-08-07T07:05:20;14.40;99.90
2603;DHT22;1311;47.966;7.958;2023-08-07T07:07:47;14.50;99.90
2603;DHT22;1311;47.966;7.958;2023-08-07T07:10:14;14.40;99.90
2603;DHT22;1311;47.966;7.958;2023-08-07T07:12:41;14.40;99.90
2603;DHT22;1311;47.966;7.958;2023-08-07T07:15:08;14.40;99.90
2603;DHT22;1311;47.966;7.958;2023-08-07T07:17:35;14.30;99.90
2603;DHT22;1311;47.966;7.958;2023-08-07T07:20:02;14.20;99.90
2603;DHT22;1311;47.966;7.958;2023-08-07T07:22:31;14.20;99.90
2603;DHT22;1311;47.966;7.958;2023-08-07T07:24:58;14.40;99.90
2603;DHT22;1311;47.966;7.958;2023-08-07T07:27:25;14.60;99.90
2603;DHT22;1311;47.966;7.958;2023-08-07T07:29:52;14.70;99.90
2603;DHT22;1311;47.966;7.958;2023-08-07T07:32:19;14.70;99.90
2603;DHT22;1311;47.966;7.958;2023-08-07T07:34:46;14.80;99.90
2603;DHT22;1311;47.966;7.958;2023-08-07T07:37:13;15.00;99.90
2603;DHT22;1311;47.966;7.958;2023-08-07T07:39:43;14.90;99.90
2603;DHT22;1311;47.966;7.958;2023-08-07T07:42:10;14.90;99.90
2603;DHT22;1311;47.966;7.958;2023-08-07T07:44:37;14.80;99.90
2603;DHT22;1311;47.966;7.958;2023-08-07T07:47:05;14.90;99.90
2603;DHT22;1311;47.966;7.958;2023-08-07T07:49:32;15.00;99.90
2603;DHT22;1311;47.966;7.958;2023-08-07T07:51:59;15.00;99.90
2603;DHT22;1311;47.966;7.958;2023-08-07T07:54:28;14.90;99.90
2603;DHT22;1311;47.966;7.958;2023-08-07T07:56:56;15.00;99.90
2603;DHT22;1311;47.966;7.958;2023-08-07T07:59:23;15.10;99.90
2603;DHT22;1311;47.966;7.958;2023-08-07T08:01:50;15.20;99.90
2603;DHT22;1311;47.966;7.958;2023-08-07T08:04:17;15.20;99.90
2603;DHT22;1311;47.966;7.958;2023-08-07T08:06:44;15.10;99.90
2603;DHT22;1311;47.966;7.958;2023-08-07T08:09:13;15.00;99.90
2603;DHT22;1311;47.966;7.958;2023-08-07T08:11:41;15.10;99.90
2603;DHT22;1311;47.966;7.958;2023-08-07T08:14:09;15.20;99.90
2603;DHT22;1311;47.966;7.958;2023-08-07T08:16:36;15.10;99.90
2603;DHT22;1311;47.966;7.958;2023-08-07T08:19:03;15.30;99.90
2603;DHT22;1311;47.966;7.958;2023-08-07T08:21:30;15.20;99.90
2603;DHT22;1311;47.966;7.958;2023-08-07T08:23:57;15.20;99.90
2603;DHT22;1311;47.966;7.958;2023-08-07T08:26:24;15.20;99.90
2603;DHT22;1311;47.966;7.958;2023-08-07T08:28:51;15.50;99.90
2603;DHT22;1311;47.966;7.958;2023-08-07T08:31:20;16.00;99.90
2603;DHT22;1311;47.966;7.958;2023-08-07T08:33:49;16.50;99.90
2603;DHT22;1311;47.966;7.958;2023-08-07T08:36:16;16.50;99.90
2603;DHT22;1311;47.966;7.958;2023-08-07T08:38:43;16.30;99.90
2603;DHT22;1311;47.966;7.958;2023-08-07T08:41:11;16.10;99.90
2603;DHT22;1311;47.966;7.958;2023-08-07T08:43:39;15.70;99.90
2603;DHT22;1311;47.966;7.958;2023-08-07T08:46:08;15.70;99.90
2603;DHT22;1311;47.966;7.958;2023-08-07T08:48:39;15.40;99.90
2603;DHT22;1311;47.966;7.958;2023-08-07T08:51:08;15.20;99.90
2603;DHT22;1311;47.966;7.958;2023-08-07T08:53:37;15.20;99.90
2603;DHT22;1311;47.966;7.958;2023-08-07T08:56:05;15.30;99.90
2603;DHT22;1311;47.966;7.958;2023-08-07T08:58:33;15.30;99.90
2603;DHT22;1311;47.966;7.958;2023-08-07T09:01:00;15.10;99.90
2603;DHT22;1311;47.966;7.958;2023-08-07T09:03:28;14.90;99.90
2603;DHT22;1311;47.966;7.958;2023-08-07T09:05:58;14.70;99.90
2603;DHT22;1311;47.966;7.958;2023-08-07T09:08:27;14.90;99.90
2603;DHT22;1311;47.966;7.958;2023-08-07T09:10:55;15.40;99.90
2603;DHT22;1311;47.966;7.958;2023-08-07T09:13:23;16.00;99.90
2603;DHT22;1311;47.966;7.958;2023-08-07T09:15:51;16.30;99.90
2603;DHT22;1311;47.966;7.958;2023-08-07T09:18:18;16.50;99.90
2603;DHT22;1311;47.966;7.958;2023-08-07T09:20:46;16.50;99.90
2603;DHT22;1311;47.966;7.958;2023-08-07T09:23:16;16.20;99.90
2603;DHT22;1311;47.966;7.958;2023-08-07T09:25:43;16.10;99.90
2603;DHT22;1311;47.966;7.958;2023-08-07T09:28:11;15.90;99.90
2603;DHT22;1311;47.966;7.958;2023-08-07T09:30:39;15.90;99.90
2603;DHT22;1311;47.966;7.958;2023-08-07T09:33:07;16.10;99.90
2603;DHT22;1311;47.966;7.958;2023-08-07T09:35:35;16.30;99.90
2603;DHT22;1311;47.966;7.958;2023-08-07T09:38:02;16.90;99.90
2603;DHT22;1311;47.966;7.958;2023-08-07T09:40:31;17.30;99.90
2603;DHT22;1311;47.966;7.958;2023-08-07T09:43:01;17.60;99.90
2603;DHT22;1311;47.966;7.958;2023-08-07T09:45:28;17.90;99.90
2603;DHT22;1311;47.966;7.958;2023-08-07T09:47:59;17.70;99.90
2603;DHT22;1311;47.966;7.958;2023-08-07T09:50:26;17.70;99.90
2603;DHT22;1311;47.966;7.958;2023-08-07T09:52:53;18.00;99.90
2603;DHT22;1311;47.966;7.958;2023-08-07T09:55:21;18.30;99.90
2603;DHT22;1311;47.966;7.958;2023-08-07T09:57:50;18.90;99.90
2603;DHT22;1311;47.966;7.958;2023-08-07T10:00:17;19.20;99.90
2603;DHT22;1311;47.966;7.958;2023-08-07T10:02:46;19.50;65.00
2603;DHT22;1311;47.966;7.958;2023-08-07T10:05:13;19.90;1.00
2603;DHT22;1311;47.966;7.958;2023-08-07T10:07:40;19.90;1.00
2603;DHT22;1311;47.966;7.958;2023-08-07T10:10:08;19.60;99.90
2603;DHT22;1311;47.966;7.958;2023-08-07T10:12:37;19.50;99.90
2603;DHT22;1311;47.966;7.958;2023-08-07T10:15:08;19.20;99.60
2603;DHT22;1311;47.966;7.958;2023-08-07T10:17:35;18.50;1.00
2603;DHT22;1311;47.966;7.958;2023-08-07T10:20:02;18.20;99.90
2603;DHT22;1311;47.966;7.958;2023-08-07T10:22:30;18.00;99.90
2603;DHT22;1311;47.966;7.958;2023-08-07T10:25:01;17.70;99.90
2603;DHT22;1311;47.966;7.958;2023-08-07T10:27:30;17.30;1.00
2603;DHT22;1311;47.966;7.958;2023-08-07T10:30:00;17.30;1.00
2603;DHT22;1311;47.966;7.958;2023-08-07T10:32:30;17.30;1.00
2603;DHT22;1311;47.966;7.958;2023-08-07T10:34:58;17.30;1.00
2603;DHT22;1311;47.966;7.958;2023-08-07T10:37:41;17.80;1.00
2603;DHT22;1311;47.966;7.958;2023-08-07T10:40:09;17.80;1.00
2603;DHT22;1311;47.966;7.958;2023-08-07T10:42:54;17.90;1.00
2603;DHT22;1311;47.966;7.958;2023-08-07T10:45:23;17.80;99.90
2603;DHT22;1311;47.966;7.958;2023-08-07T10:48:06;18.10;99.90
2603;DHT22;1311;47.966;7.958;2023-08-07T10:50:35;18.60;99.90
2603;DHT22;1311;47.966;7.958;2023-08-07T10:53:03;18.60;99.90
2603;DHT22;1311;47.966;7.958;2023-08-07T10:55:43;18.60;99.90
2603;DHT22;1311;47.966;7.958;2023-08-07T10:58:22;19.00;99.90
2603;DHT22;1311;47.966;7.958;2023-08-07T11:00:50;19.00;1.00
2603;DHT22;1311;47.966;7.958;2023-08-07T11:03:26;18.90;99.90
2603;DHT22;1311;47.966;7.958;2023-08-07T11:05:53;19.10;1.00
2603;DHT22;1311;47.966;7.958;2023-08-07T11:08:22;18.90;1.00
2603;DHT22;1311;47.966;7.958;2023-08-07T11:10:50;19.30;1.00
2603;DHT22;1311;47.966;7.958;2023-08-07T11:13:17;19.50;1.00
2603;DHT22;1311;47.966;7.958;2023-08-07T11:15:46;19.50;99.90
2603;DHT22;1311;47.966;7.958;2023-08-07T11:18:14;19.60;1.00
2603;DHT22;1311;47.966;7.958;2023-08-07T11:20:44;20.30;99.90
2603;DHT22;1311;47.966;7.958;2023-08-07T11:23:11;20.70;1.00
2603;DHT22;1311;47.966;7.958;2023-08-07T11:25:38;20.90;99.90
2603;DHT22;1311;47.966;7.958;2023-08-07T11:28:05;21.10;1.00
2603;DHT22;1311;47.966;7.958;2023-08-07T11:30:34;21.60;1.00
2603;DHT22;1311;47.966;7.958;2023-08-07T11:33:01;21.30;1.00
2603;DHT22;1311;47.966;7.958;2023-08-07T11:35:29;20.90;99.90
2603;DHT22;1311;47.966;7.958;2023-08-07T11:37:57;21.20;99.90
2603;DHT22;1311;47.966;7.958;2023-08-07T11:40:24;21.00;99.90
2603;DHT22;1311;47.966;7.958;2023-08-07T11:42:51;21.60;99.90
2603;DHT22;1311;47.966;7.958;2023-08-07T11:45:18;21.80;99.90
2603;DHT22;1311;47.966;7.958;2023-08-07T11:47:45;21.60;99.90
2603;DHT22;1311;47.966;7.958;2023-08-07T11:50:11;21.20;99.90
2603;DHT22;1311;47.966;7.958;2023-08-07T11:52:38;21.00;99.90
2603;DHT22;1311;47.966;7.958;2023-08-07T11:55:08;21.00;99.90
2603;DHT22;1311;47.966;7.958;2023-08-07T11:57:38;20.90;99.90
2603;DHT22;1311;47.966;7.958;2023-08-07T12:00:09;20.50;99.90
2603;DHT22;1311;47.966;7.958;2023-08-07T12:02:41;20.30;99.90
2603;DHT22;1311;47.966;7.958;2023-08-07T12:05:09;20.50;99.90
2603;DHT22;1311;47.966;7.958;2023-08-07T12:07:36;20.90;80.20
2603;DHT22;1311;47.966;7.958;2023-08-07T12:10:04;21.00;8.70
2603;DHT22;1311;47.966;7.958;2023-08-07T12:12:36;20.70;1.00
2603;DHT22;1311;47.966;7.958;2023-08-07T12:15:03;20.60;1.00
2603;DHT22;1311;47.966;7.958;2023-08-07T12:17:33;20.70;35.50
2603;DHT22;1311;47.966;7.958;2023-08-07T12:20:00;21.00;1.00
2603;DHT22;1311;47.966;7.958;2023-08-07T12:22:27;20.80;1.00
2603;DHT22;1311;47.966;7.958;2023-08-07T12:24:54;20.70;1.00
2603;DHT22;1311;47.966;7.958;2023-08-07T12:27:21;20.50;1.00
2603;DHT22;1311;47.966;7.958;2023-08-07T12:29:50;20.40;1.00
2603;DHT22;1311;47.966;7.958;2023-08-07T12:32:16;20.60;1.00
2603;DHT22;1311;47.966;7.958;2023-08-07T12:34:43;20.80;1.00
2603;DHT22;1311;47.966;7.958;2023-08-07T12:37:10;21.00;1.00
2603;DHT22;1311;47.966;7.958;2023-08-07T12:39:37;21.00;1.00
2603;DHT22;1311;47.966;7.958;2023-08-07T12:42:04;20.90;1.00
2603;DHT22;1311;47.966;7.958;2023-08-07T12:44:31;20.60;1.00
2603;DHT22;1311;47.966;7.958;2023-08-07T12:46:59;20.70;1.00
2603;DHT22;1311;47.966;7.958;2023-08-07T12:49:26;20.70;1.00
2603;DHT22;1311;47.966;7.958;2023-08-07T12:51:53;21.00;1.00
2603;DHT22;1311;47.966;7.958;2023-08-07T12:54:22;21.00;1.00
2603;DHT22;1311;47.966;7.958;2023-08-07T12:56:48;20.70;99.90
2603;DHT22;1311;47.966;7.958;2023-08-07T12:59:16;20.90;99.90
2603;DHT22;1311;47.966;7.958;2023-08-07T13:01:43;21.40;1.00
2603;DHT22;1311;47.966;7.958;2023-08-07T13:04:11;21.50;99.90
2603;DHT22;1311;47.966;7.958;2023-08-07T13:06:40;21.50;99.90
2603;DHT22;1311;47.966;7.958;2023-08-07T13:09:07;21.60;74.60
2603;DHT22;1311;47.966;7.958;2023-08-07T13:11:34;21.20;14.50
2603;DHT22;1311;47.966;7.958;2023-08-07T13:14:01;20.60;16.80
2603;DHT22;1311;47.966;7.958;2023-08-07T13:16:27;20.00;42.50
2603;DHT22;1311;47.966;7.958;2023-08-07T13:18:54;19.90;50.30
2603;DHT22;1311;47.966;7.958;2023-08-07T13:21:22;20.20;93.10
2603;DHT22;1311;47.966;7.958;2023-08-07T13:23:49;20.10;81.00
2603;DHT22;1311;47.966;7.958;2023-08-07T13:26:16;20.20;85.10
2603;DHT22;1311;47.966;7.958;2023-08-07T13:28:43;20.70;99.90
2603;DHT22;1311;47.966;7.958;2023-08-07T13:31:10;20.90;52.10
2603;DHT22;1311;47.966;7.958;2023-08-07T13:33:36;20.70;27.70
2603;DHT22;1311;47.966;7.958;2023-08-07T13:36:03;20.60;49.90
2603;DHT22;1311;47.966;7.958;2023-08-07T13:38:31;20.70;49.50
2603;DHT22;1311;47.966;7.958;2023-08-07T13:40:59;20.10;1.00
2603;DHT22;1311;47.966;7.958;2023-08-07T13:43:26;20.20;17.80
2603;DHT22;1311;47.966;7.958;2023-08-07T13:45:52;20.20;33.10
2603;DHT22;1311;47.966;7.958;2023-08-07T13:48:20;20.20;55.80
2603;DHT22;1311;47.966;7.958;2023-08-07T13:50:47;20.60;77.40
2603;DHT22;1311;47.966;7.958;2023-08-07T13:53:13;20.40;92.40
2603;DHT22;1311;47.966;7.958;2023-08-07T13:55:42;20.40;99.90
2603;DHT22;1311;47.966;7.958;2023-08-07T13:58:09;20.70;99.90
2603;DHT22;1311;47.966;7.958;2023-08-07T14:00:36;20.80;99.90
2603;DHT22;1311;47.966;7.958;2023-08-07T14:03:04;20.90;99.90
2603;DHT22;1311;47.966;7.958;2023-08-07T14:05:30;20.90;99.90
2603;DHT22;1311;47.966;7.958;2023-08-07T14:07:57;21.10;55.10
2603;DHT22;1311;47.966;7.958;2023-08-07T14:10:24;21.40;69.70
2603;DHT22;1311;47.966;7.958;2023-08-07T14:12:52;21.10;29.90
2603;DHT22;1311;47.966;7.958;2023-08-07T14:15:19;20.60;7.50
2603;DHT22;1311;47.966;7.958;2023-08-07T14:17:46;20.40;80.80
2603;DHT22;1311;47.966;7.958;2023-08-07T14:20:12;20.50;99.90
2603;DHT22;1311;47.966;7.958;2023-08-07T14:22:39;20.40;99.90
2603;DHT22;1311;47.966;7.958;2023-08-07T14:25:07;20.70;99.90
2603;DHT22;1311;47.966;7.958;2023-08-07T14:27:34;20.90;99.90
2603;DHT22;1311;47.966;7.958;2023-08-07T14:30:02;21.10;99.90
2603;DHT22;1311;47.966;7.958;2023-08-07T14:32:29;21.50;99.90
2603;DHT22;1311;47.966;7.958;2023-08-07T14:34:56;21.50;99.90
2603;DHT22;1311;47.966;7.958;2023-08-07T14:37:22;21.10;99.90
2603;DHT22;1311;47.966;7.958;2023-08-07T14:39:49;20.50;99.90
2603;DHT22;1311;47.966;7.958;2023-08-07T14:42:16;20.40;99.90
2603;DHT22;1311;47.966;7.958;2023-08-07T14:44:43;20.40;99.90
2603;DHT22;1311;47.966;7.958;2023-08-07T14:47:11;20.30;99.90
2603;DHT22;1311;47.966;7.958;2023-08-07T14:49:38;20.20;99.90
2603;DHT22;1311;47.966;7.958;2023-08-07T14:52:05;20.10;99.90
2603;DHT22;1311;47.966;7.958;2023-08-07T14:54:32;20.20;99.90
2603;DHT22;1311;47.966;7.958;2023-08-07T14:56:59;20.30;99.90
2603;DHT22;1311;47.966;7.958;2023-08-07T14:59:26;20.50;99.90
2603;DHT22;1311;47.966;7.958;2023-08-07T15:01:53;20.40;99.90
2603;DHT22;1311;47.966;7.958;2023-08-07T15:04:22;20.30;17.00
2603;DHT22;1311;47.966;7.958;2023-08-07T15:06:49;20.40;41.70
2603;DHT22;1311;47.966;7.958;2023-08-07T15:09:16;20.60;46.00
2603;DHT22;1311;47.966;7.958;2023-08-07T15:11:44;20.80;48.10
2603;DHT22;1311;47.966;7.958;2023-08-07T15:14:11;20.80;15.70
2603;DHT22;1311;47.966;7.958;2023-08-07T15:16:38;21.10;36.80
2603;DHT22;1311;47.966;7.958;2023-08-07T15:19:05;21.20;16.00
2603;DHT22;1311;47.966;7.958;2023-08-07T15:21:34;20.90;1.00
2603;DHT22;1311;47.966;7.958;2023-08-07T15:24:01;20.80;1.00
2603;DHT22;1311;47.966;7.958;2023-08-07T15:26:28;21.20;1.00
2603;DHT22;1311;47.966;7.958;2023-08-07T15:28:55;21.30;1.00
2603;DHT22;1311;47.966;7.958;2023-08-07T15:31:22;21.20;1.00
2603;DHT22;1311;47.966;7.958;2023-08-07T15:33:49;21.00;1.00
2603;DHT22;1311;47.966;7.958;2023-08-07T15:36:18;20.90;1.00
2603;DHT22;1311;47.966;7.958;2023-08-07T15:38:46;20.90;1.00
2603;DHT22;1311;47.966;7.958;2023-08-07T15:41:13;20.70;1.00
2603;DHT22;1311;47.966;7.958;2023-08-07T15:43:39;20.90;1.00
2603;DHT22;1311;47.966;7.958;2023-08-07T15:46:06;20.90;1.00
2603;DHT22;1311;47.966;7.958;2023-08-07T15:48:33;20.90;1.00
2603;DHT22;1311;47.966;7.958;2023-08-07T15:51:00;20.80;11.70
2603;DHT22;1311;47.966;7.958;2023-08-07T15:53:26;20.60;15.80
2603;DHT22;1311;47.966;7.958;2023-08-07T15:55:54;20.40;9.60
2603;DHT22;1311;47.966;7.958;2023-08-07T15:58:21;20.10;46.20
2603;DHT22;1311;47.966;7.958;2023-08-07T16:00:48;20.30;99.90
2603;DHT22;1311;47.966;7.958;2023-08-07T16:03:15;20.30;99.90
2603;DHT22;1311;47.966;7.958;2023-08-07T16:05:44;20.60;99.90